UAL469 KLAX-KSFO
Flight info
| Callsign | UAL469 |
|---|---|
| Flight time | 0h 52m |
| Altitude | 38000 |
| Route | SUMMR2 STOKD SERFR SERFR4 |
| Aircraft | B789/H-SDE1E2E3FGHIJ2J3J4J5M1RWXY/LB1D1 |
Departure
| Time | 2026-05-07 21:12 |
|---|---|
| Airport | Los Angeles International Airport (KLAX) |
Arrival
| Time | 2026-05-07 22:04 |
|---|---|
| Airport | San Francisco International Airport (KSFO) |
| Time | Latitude | Longitude | Altitude | Speed | Heading |
|---|---|---|---|---|---|
| 2026-05-07 20:44 | 33.94175 | -118.41116 | 131 ft | 0 kts | 82° |
| 2026-05-07 21:04 | 33.94175 | -118.41119 | 131 ft | 3 kts | 82° |
| 2026-05-07 21:04 | 33.94172 | -118.41141 | 133 ft | 3 kts | 82° |
| 2026-05-07 21:04 | 33.94170 | -118.41163 | 123 ft | 3 kts | 82° |
| 2026-05-07 21:04 | 33.94167 | -118.41186 | 131 ft | 3 kts | 82° |
| 2026-05-07 21:05 | 33.94165 | -118.41207 | 130 ft | 3 kts | 82° |
| 2026-05-07 21:05 | 33.94164 | -118.41214 | 130 ft | 0 kts | 82° |
| 2026-05-07 21:06 | 33.94166 | -118.41205 | 125 ft | 1 kts | 77° |
| 2026-05-07 21:06 | 33.94170 | -118.41201 | 125 ft | 1 kts | 43° |
| 2026-05-07 21:07 | 33.94177 | -118.41201 | 125 ft | 1 kts | 2° |
| 2026-05-07 21:07 | 33.94218 | -118.41211 | 127 ft | 12 kts | 351° |
| 2026-05-07 21:07 | 33.94307 | -118.41228 | 128 ft | 14 kts | 350° |
| 2026-05-07 21:07 | 33.94404 | -118.41246 | 128 ft | 15 kts | 352° |
| 2026-05-07 21:08 | 33.94507 | -118.41263 | 128 ft | 15 kts | 354° |
| 2026-05-07 21:08 | 33.94616 | -118.41276 | 129 ft | 16 kts | 354° |
| 2026-05-07 21:08 | 33.94727 | -118.41290 | 127 ft | 14 kts | 354° |
| 2026-05-07 21:08 | 33.94782 | -118.41279 | 125 ft | 6 kts | 40° |
| 2026-05-07 21:09 | 33.94806 | -118.41202 | 126 ft | 14 kts | 85° |
| 2026-05-07 21:09 | 33.94816 | -118.41074 | 127 ft | 17 kts | 84° |
| 2026-05-07 21:09 | 33.94831 | -118.40927 | 127 ft | 19 kts | 82° |
| 2026-05-07 21:09 | 33.94849 | -118.40762 | 126 ft | 21 kts | 83° |
| 2026-05-07 21:10 | 33.94868 | -118.40571 | 130 ft | 26 kts | 83° |
| 2026-05-07 21:10 | 33.94891 | -118.40338 | 128 ft | 29 kts | 83° |
| 2026-05-07 21:10 | 33.94916 | -118.40095 | 127 ft | 30 kts | 83° |
| 2026-05-07 21:10 | 33.94941 | -118.39943 | 128 ft | 10 kts | 56° |
| 2026-05-07 21:11 | 33.94989 | -118.39917 | 127 ft | 8 kts | 7° |
| 2026-05-07 21:11 | 33.95028 | -118.39945 | 126 ft | 9 kts | 299° |
| 2026-05-07 21:11 | 33.95016 | -118.40211 | 127 ft | 45 kts | 263° |
| 2026-05-07 21:12 | 33.94951 | -118.40839 | 124 ft | 107 kts | 263° |
| 2026-05-07 21:12 | 33.94828 | -118.41954 | 149 ft | 158 kts | 262° |
| 2026-05-07 21:12 | 33.94689 | -118.43267 | 809 ft | 153 kts | 261° |
| 2026-05-07 21:12 | 33.94551 | -118.44646 | 1295 ft | 172 kts | 268° |
| 2026-05-07 21:13 | 33.94431 | -118.46111 | 1912 ft | 180 kts | 262° |
| 2026-05-07 21:13 | 33.94367 | -118.47730 | 2337 ft | 209 kts | 270° |
| 2026-05-07 21:13 | 33.94298 | -118.49626 | 2761 ft | 243 kts | 267° |
| 2026-05-07 21:13 | 33.94110 | -118.51756 | 3456 ft | 260 kts | 262° |
| 2026-05-07 21:14 | 33.93935 | -118.53924 | 4522 ft | 264 kts | 267° |
| 2026-05-07 21:14 | 33.93814 | -118.56192 | 4968 ft | 273 kts | 266° |
| 2026-05-07 21:14 | 33.93646 | -118.58459 | 5273 ft | 269 kts | 264° |
| 2026-05-07 21:14 | 33.93458 | -118.60672 | 6467 ft | 265 kts | 264° |
| 2026-05-07 21:15 | 33.93279 | -118.62910 | 7373 ft | 272 kts | 265° |
| 2026-05-07 21:15 | 33.93101 | -118.65212 | 8239 ft | 280 kts | 265° |
| 2026-05-07 21:15 | 33.92919 | -118.67588 | 9139 ft | 287 kts | 266° |
| 2026-05-07 21:15 | 33.92733 | -118.70010 | 9997 ft | 294 kts | 266° |
| 2026-05-07 21:16 | 33.92540 | -118.72492 | 10484 ft | 314 kts | 266° |
| 2026-05-07 21:16 | 33.92328 | -118.75228 | 10703 ft | 342 kts | 265° |
| 2026-05-07 21:16 | 33.92098 | -118.78158 | 11268 ft | 354 kts | 265° |
| 2026-05-07 21:16 | 33.91863 | -118.81128 | 12094 ft | 359 kts | 265° |
| 2026-05-07 21:17 | 33.91718 | -118.84137 | 12842 ft | 363 kts | 274° |
| 2026-05-07 21:17 | 33.91866 | -118.87199 | 13567 ft | 368 kts | 272° |
| 2026-05-07 21:17 | 33.91915 | -118.90305 | 14287 ft | 373 kts | 272° |
| 2026-05-07 21:17 | 33.91979 | -118.93444 | 14989 ft | 377 kts | 273° |
| 2026-05-07 21:18 | 33.92087 | -118.96615 | 15678 ft | 382 kts | 274° |
| 2026-05-07 21:18 | 33.92221 | -118.99823 | 16347 ft | 385 kts | 277° |
| 2026-05-07 21:18 | 33.92953 | -119.02911 | 16983 ft | 385 kts | 298° |
| 2026-05-07 21:18 | 33.94299 | -119.05704 | 17573 ft | 388 kts | 303° |
| 2026-05-07 21:19 | 33.95739 | -119.08473 | 18241 ft | 391 kts | 304° |
| 2026-05-07 21:19 | 33.97190 | -119.11225 | 18809 ft | 395 kts | 304° |
| 2026-05-07 21:19 | 33.98645 | -119.14046 | 19392 ft | 397 kts | 303° |
| 2026-05-07 21:19 | 34.00104 | -119.16891 | 19950 ft | 399 kts | 305° |
| 2026-05-07 21:20 | 34.01932 | -119.19385 | 20486 ft | 398 kts | 322° |
| 2026-05-07 21:20 | 34.04153 | -119.21384 | 20950 ft | 401 kts | 326° |
| 2026-05-07 21:20 | 34.06442 | -119.23330 | 21491 ft | 403 kts | 327° |
| 2026-05-07 21:20 | 34.07957 | -119.24606 | 21813 ft | 405 kts | 326° |
| 2026-05-07 21:21 | 34.10274 | -119.26588 | 22308 ft | 408 kts | 326° |
| 2026-05-07 21:21 | 34.12580 | -119.28591 | 22790 ft | 410 kts | 326° |
| 2026-05-07 21:21 | 34.14915 | -119.30608 | 23272 ft | 413 kts | 326° |
| 2026-05-07 21:21 | 34.17263 | -119.32623 | 23713 ft | 416 kts | 326° |
| 2026-05-07 21:22 | 34.19625 | -119.34655 | 24083 ft | 418 kts | 326° |
| 2026-05-07 21:22 | 34.21998 | -119.36705 | 24459 ft | 420 kts | 326° |
| 2026-05-07 21:22 | 34.24386 | -119.38770 | 24829 ft | 422 kts | 326° |
| 2026-05-07 21:22 | 34.26779 | -119.40836 | 25180 ft | 424 kts | 326° |
| 2026-05-07 21:23 | 34.29194 | -119.42922 | 25543 ft | 426 kts | 326° |
| 2026-05-07 21:23 | 34.31609 | -119.45013 | 25895 ft | 428 kts | 326° |
| 2026-05-07 21:23 | 34.34008 | -119.47091 | 26244 ft | 430 kts | 326° |
| 2026-05-07 21:23 | 34.36447 | -119.49204 | 26603 ft | 432 kts | 326° |
| 2026-05-07 21:24 | 34.38897 | -119.51329 | 26952 ft | 435 kts | 326° |
| 2026-05-07 21:24 | 34.41318 | -119.53538 | 27304 ft | 438 kts | 318° |
| 2026-05-07 21:24 | 34.43471 | -119.56158 | 27624 ft | 440 kts | 316° |
| 2026-05-07 21:24 | 34.45630 | -119.58800 | 27999 ft | 442 kts | 316° |
| 2026-05-07 21:25 | 34.47802 | -119.61463 | 28363 ft | 445 kts | 316° |
| 2026-05-07 21:25 | 34.49979 | -119.64142 | 28739 ft | 447 kts | 316° |
| 2026-05-07 21:25 | 34.52163 | -119.66836 | 29112 ft | 449 kts | 316° |
| 2026-05-07 21:25 | 34.54365 | -119.69548 | 29497 ft | 451 kts | 316° |
| 2026-05-07 21:26 | 34.56576 | -119.72273 | 29853 ft | 454 kts | 316° |
| 2026-05-07 21:26 | 34.58797 | -119.75014 | 30209 ft | 456 kts | 316° |
| 2026-05-07 21:26 | 34.61034 | -119.77779 | 30555 ft | 458 kts | 316° |
| 2026-05-07 21:26 | 34.63242 | -119.80508 | 30904 ft | 460 kts | 316° |
| 2026-05-07 21:27 | 34.65487 | -119.83285 | 31190 ft | 462 kts | 316° |
| 2026-05-07 21:27 | 34.67742 | -119.86077 | 31513 ft | 464 kts | 316° |
| 2026-05-07 21:27 | 34.70009 | -119.88886 | 31819 ft | 466 kts | 316° |
| 2026-05-07 21:27 | 34.72280 | -119.91704 | 32126 ft | 467 kts | 316° |
| 2026-05-07 21:28 | 34.74556 | -119.94529 | 32449 ft | 469 kts | 316° |
| 2026-05-07 21:28 | 34.76844 | -119.97372 | 32770 ft | 471 kts | 315° |
| 2026-05-07 21:28 | 34.79143 | -120.00230 | 33075 ft | 473 kts | 315° |
| 2026-05-07 21:28 | 34.81447 | -120.03096 | 33377 ft | 475 kts | 315° |
| 2026-05-07 21:29 | 34.83763 | -120.05982 | 33662 ft | 476 kts | 315° |
| 2026-05-07 21:29 | 34.86082 | -120.08873 | 33926 ft | 478 kts | 315° |
| 2026-05-07 21:29 | 34.88407 | -120.11773 | 34228 ft | 478 kts | 315° |
| 2026-05-07 21:29 | 34.90724 | -120.14666 | 34624 ft | 476 kts | 315° |
| 2026-05-07 21:30 | 34.93035 | -120.17555 | 35014 ft | 474 kts | 315° |
| 2026-05-07 21:30 | 34.95332 | -120.20429 | 35379 ft | 472 kts | 315° |
| 2026-05-07 21:30 | 34.97614 | -120.23285 | 35754 ft | 470 kts | 315° |
| 2026-05-07 21:30 | 34.99889 | -120.26137 | 36133 ft | 468 kts | 315° |
| 2026-05-07 21:31 | 35.02149 | -120.28970 | 36507 ft | 465 kts | 315° |
| 2026-05-07 21:31 | 35.04405 | -120.31801 | 36869 ft | 463 kts | 315° |
| 2026-05-07 21:31 | 35.06642 | -120.34612 | 37232 ft | 461 kts | 315° |
| 2026-05-07 21:31 | 35.08851 | -120.37371 | 37554 ft | 459 kts | 317° |
| 2026-05-07 21:32 | 35.11240 | -120.40028 | 37825 ft | 458 kts | 318° |
| 2026-05-07 21:32 | 35.13582 | -120.42657 | 38090 ft | 458 kts | 317° |
| 2026-05-07 21:32 | 35.18267 | -120.47922 | 38075 ft | 458 kts | 318° |
| 2026-05-07 21:33 | 35.22952 | -120.53167 | 38074 ft | 456 kts | 317° |
| 2026-05-07 21:33 | 35.27619 | -120.58421 | 38072 ft | 455 kts | 317° |
| 2026-05-07 21:34 | 35.32295 | -120.63680 | 38076 ft | 456 kts | 317° |
| 2026-05-07 21:34 | 35.36964 | -120.68948 | 38080 ft | 456 kts | 317° |
| 2026-05-07 21:35 | 35.41628 | -120.74215 | 38080 ft | 456 kts | 317° |
| 2026-05-07 21:35 | 35.46266 | -120.79463 | 38093 ft | 457 kts | 317° |
| 2026-05-07 21:36 | 35.51171 | -120.84412 | 38100 ft | 457 kts | 323° |
| 2026-05-07 21:36 | 35.56238 | -120.89145 | 38103 ft | 458 kts | 322° |
| 2026-05-07 21:37 | 35.61338 | -120.93864 | 38104 ft | 459 kts | 323° |
| 2026-05-07 21:37 | 35.66428 | -120.98606 | 38101 ft | 459 kts | 322° |
| 2026-05-07 21:38 | 35.71522 | -121.03350 | 38101 ft | 459 kts | 322° |
| 2026-05-07 21:38 | 35.76607 | -121.08097 | 38097 ft | 459 kts | 322° |
| 2026-05-07 21:39 | 35.81670 | -121.12829 | 38091 ft | 459 kts | 322° |
| 2026-05-07 21:39 | 35.86765 | -121.17600 | 37948 ft | 456 kts | 322° |
| 2026-05-07 21:40 | 35.89276 | -121.19953 | 37361 ft | 452 kts | 322° |
| 2026-05-07 21:40 | 35.91789 | -121.22311 | 36625 ft | 453 kts | 322° |
| 2026-05-07 21:40 | 35.94290 | -121.24660 | 36049 ft | 450 kts | 322° |
| 2026-05-07 21:40 | 35.96776 | -121.26996 | 35469 ft | 448 kts | 322° |
| 2026-05-07 21:41 | 35.99259 | -121.29332 | 34886 ft | 446 kts | 323° |
| 2026-05-07 21:41 | 36.01725 | -121.31652 | 34316 ft | 445 kts | 323° |
| 2026-05-07 21:41 | 36.04191 | -121.33976 | 33732 ft | 443 kts | 323° |
| 2026-05-07 21:41 | 36.06610 | -121.36247 | 33165 ft | 439 kts | 325° |
| 2026-05-07 21:42 | 36.09155 | -121.38272 | 32634 ft | 434 kts | 328° |
| 2026-05-07 21:42 | 36.11705 | -121.40257 | 32068 ft | 431 kts | 328° |
| 2026-05-07 21:42 | 36.14231 | -121.42231 | 31543 ft | 428 kts | 328° |
| 2026-05-07 21:42 | 36.16740 | -121.44191 | 31010 ft | 425 kts | 328° |
| 2026-05-07 21:43 | 36.19235 | -121.46137 | 30488 ft | 422 kts | 328° |
| 2026-05-07 21:43 | 36.21708 | -121.48069 | 29937 ft | 419 kts | 328° |
| 2026-05-07 21:43 | 36.24139 | -121.49970 | 29416 ft | 414 kts | 328° |
| 2026-05-07 21:43 | 36.26561 | -121.51867 | 28911 ft | 409 kts | 328° |
| 2026-05-07 21:44 | 36.28952 | -121.53740 | 28410 ft | 405 kts | 328° |
| 2026-05-07 21:44 | 36.31322 | -121.55597 | 27911 ft | 400 kts | 328° |
| 2026-05-07 21:44 | 36.33662 | -121.57433 | 27428 ft | 396 kts | 328° |
| 2026-05-07 21:44 | 36.35981 | -121.59253 | 26954 ft | 392 kts | 328° |
| 2026-05-07 21:45 | 36.38267 | -121.61049 | 26467 ft | 388 kts | 328° |
| 2026-05-07 21:45 | 36.40547 | -121.62841 | 26015 ft | 385 kts | 328° |
| 2026-05-07 21:45 | 36.42797 | -121.64611 | 25546 ft | 381 kts | 328° |
| 2026-05-07 21:45 | 36.45032 | -121.66370 | 25074 ft | 378 kts | 328° |
| 2026-05-07 21:46 | 36.47240 | -121.68110 | 24634 ft | 375 kts | 328° |
| 2026-05-07 21:46 | 36.49435 | -121.69839 | 24179 ft | 372 kts | 328° |
| 2026-05-07 21:46 | 36.51609 | -121.71555 | 23703 ft | 370 kts | 328° |
| 2026-05-07 21:46 | 36.53775 | -121.73267 | 23170 ft | 367 kts | 328° |
| 2026-05-07 21:47 | 36.55927 | -121.74968 | 22685 ft | 364 kts | 328° |
| 2026-05-07 21:47 | 36.58063 | -121.76658 | 22213 ft | 362 kts | 328° |
| 2026-05-07 21:47 | 36.60179 | -121.78333 | 21718 ft | 360 kts | 328° |
| 2026-05-07 21:47 | 36.62284 | -121.80001 | 21254 ft | 357 kts | 328° |
| 2026-05-07 21:48 | 36.64351 | -121.81639 | 20776 ft | 355 kts | 328° |
| 2026-05-07 21:48 | 36.66427 | -121.83285 | 20302 ft | 353 kts | 328° |
| 2026-05-07 21:48 | 36.68519 | -121.84945 | 19848 ft | 351 kts | 328° |
| 2026-05-07 21:48 | 36.70570 | -121.86574 | 19378 ft | 348 kts | 328° |
| 2026-05-07 21:49 | 36.72607 | -121.88193 | 18919 ft | 346 kts | 328° |
| 2026-05-07 21:49 | 36.74723 | -121.89551 | 18488 ft | 341 kts | 345° |
| 2026-05-07 21:49 | 36.77027 | -121.90228 | 17987 ft | 340 kts | 347° |
| 2026-05-07 21:49 | 36.79327 | -121.90873 | 17538 ft | 338 kts | 347° |
| 2026-05-07 21:50 | 36.81591 | -121.91495 | 17097 ft | 337 kts | 347° |
| 2026-05-07 21:50 | 36.83875 | -121.92129 | 16652 ft | 335 kts | 347° |
| 2026-05-07 21:50 | 36.86148 | -121.92768 | 16204 ft | 334 kts | 347° |
| 2026-05-07 21:50 | 36.88411 | -121.93402 | 15771 ft | 333 kts | 347° |
| 2026-05-07 21:51 | 36.90669 | -121.94032 | 15326 ft | 331 kts | 347° |
| 2026-05-07 21:51 | 36.92917 | -121.94660 | 14889 ft | 330 kts | 347° |
| 2026-05-07 21:51 | 36.95145 | -121.95302 | 14457 ft | 328 kts | 343° |
| 2026-05-07 21:51 | 36.97294 | -121.96203 | 14033 ft | 326 kts | 342° |
| 2026-05-07 21:52 | 36.99482 | -121.97001 | 13557 ft | 325 kts | 343° |
| 2026-05-07 21:52 | 37.01645 | -121.97797 | 13130 ft | 323 kts | 342° |
| 2026-05-07 21:52 | 37.03761 | -121.98634 | 12716 ft | 321 kts | 341° |
| 2026-05-07 21:52 | 37.05883 | -121.99481 | 12295 ft | 319 kts | 341° |
| 2026-05-07 21:53 | 37.08001 | -122.00307 | 11877 ft | 318 kts | 341° |
| 2026-05-07 21:53 | 37.10116 | -122.01127 | 11445 ft | 316 kts | 341° |
| 2026-05-07 21:53 | 37.12210 | -122.01944 | 11038 ft | 314 kts | 341° |
| 2026-05-07 21:53 | 37.14292 | -122.02761 | 10630 ft | 311 kts | 341° |
| 2026-05-07 21:54 | 37.16340 | -122.03562 | 10224 ft | 306 kts | 340° |
| 2026-05-07 21:54 | 37.18361 | -122.04353 | 9797 ft | 301 kts | 340° |
| 2026-05-07 21:54 | 37.20342 | -122.05129 | 9394 ft | 295 kts | 340° |
| 2026-05-07 21:54 | 37.22279 | -122.05887 | 9003 ft | 288 kts | 340° |
| 2026-05-07 21:55 | 37.24145 | -122.06619 | 8637 ft | 282 kts | 340° |
| 2026-05-07 21:55 | 37.25995 | -122.07346 | 8272 ft | 277 kts | 340° |
| 2026-05-07 21:55 | 37.27827 | -122.08065 | 7885 ft | 274 kts | 340° |
| 2026-05-07 21:55 | 37.29653 | -122.08784 | 7429 ft | 273 kts | 340° |
| 2026-05-07 21:56 | 37.31456 | -122.09493 | 7079 ft | 269 kts | 340° |
| 2026-05-07 21:56 | 37.33236 | -122.10195 | 6755 ft | 266 kts | 340° |
| 2026-05-07 21:56 | 37.35000 | -122.10892 | 6427 ft | 267 kts | 340° |
| 2026-05-07 21:56 | 37.36769 | -122.11590 | 6103 ft | 266 kts | 340° |
| 2026-05-07 21:57 | 37.38540 | -122.12160 | 5985 ft | 255 kts | 346° |
| 2026-05-07 21:57 | 37.40200 | -122.12736 | 5983 ft | 249 kts | 339° |
| 2026-05-07 21:57 | 37.41784 | -122.13348 | 6006 ft | 227 kts | 340° |
| 2026-05-07 21:57 | 37.43232 | -122.13850 | 5997 ft | 205 kts | 341° |
| 2026-05-07 21:58 | 37.44549 | -122.14292 | 5978 ft | 189 kts | 341° |
| 2026-05-07 21:58 | 37.45800 | -122.14718 | 5958 ft | 183 kts | 341° |
| 2026-05-07 21:58 | 37.47026 | -122.15123 | 5445 ft | 185 kts | 341° |
| 2026-05-07 21:58 | 37.48266 | -122.15528 | 4992 ft | 182 kts | 342° |
| 2026-05-07 21:59 | 37.49485 | -122.15930 | 4518 ft | 181 kts | 342° |
| 2026-05-07 21:59 | 37.50695 | -122.16330 | 4065 ft | 179 kts | 342° |
| 2026-05-07 21:59 | 37.51869 | -122.16716 | 3867 ft | 167 kts | 343° |
| 2026-05-07 21:59 | 37.52942 | -122.17070 | 3755 ft | 154 kts | 342° |
| 2026-05-07 22:00 | 37.53855 | -122.17802 | 2922 ft | 169 kts | 302° |
| 2026-05-07 22:00 | 37.54236 | -122.19137 | 2730 ft | 156 kts | 291° |
| 2026-05-07 22:00 | 37.54903 | -122.20272 | 2706 ft | 163 kts | 306° |
| 2026-05-07 22:00 | 37.55409 | -122.21567 | 2557 ft | 167 kts | 295° |
| 2026-05-07 22:01 | 37.55960 | -122.22829 | 2362 ft | 161 kts | 297° |
| 2026-05-07 22:01 | 37.56475 | -122.24067 | 2144 ft | 158 kts | 296° |
| 2026-05-07 22:01 | 37.56970 | -122.25254 | 1932 ft | 152 kts | 296° |
| 2026-05-07 22:01 | 37.57464 | -122.26433 | 1731 ft | 151 kts | 296° |
| 2026-05-07 22:02 | 37.57954 | -122.27607 | 1511 ft | 149 kts | 297° |
| 2026-05-07 22:02 | 37.58423 | -122.28727 | 1324 ft | 141 kts | 297° |
| 2026-05-07 22:02 | 37.58880 | -122.29826 | 1136 ft | 144 kts | 296° |
| 2026-05-07 22:02 | 37.59345 | -122.30928 | 918 ft | 138 kts | 297° |
| 2026-05-07 22:03 | 37.59775 | -122.31990 | 705 ft | 135 kts | 298° |
| 2026-05-07 22:03 | 37.60212 | -122.33023 | 514 ft | 131 kts | 298° |
| 2026-05-07 22:03 | 37.60643 | -122.34035 | 392 ft | 129 kts | 298° |
| 2026-05-07 22:03 | 37.61057 | -122.35026 | 215 ft | 127 kts | 298° |
| 2026-05-07 22:04 | 37.61476 | -122.36017 | 44 ft | 128 kts | 298° |
| 2026-05-07 22:04 | 37.61818 | -122.36824 | 29 ft | 72 kts | 298° |
| 2026-05-07 22:04 | 37.61987 | -122.37228 | 26 ft | 42 kts | 298° |
| 2026-05-07 22:04 | 37.62114 | -122.37530 | 27 ft | 36 kts | 292° |
| 2026-05-07 22:05 | 37.62097 | -122.37748 | 30 ft | 17 kts | 230° |
| 2026-05-07 22:05 | 37.62039 | -122.37825 | 28 ft | 13 kts | 225° |
| 2026-05-07 22:05 | 37.61976 | -122.37914 | 26 ft | 15 kts | 232° |
| 2026-05-07 22:05 | 37.61955 | -122.37988 | 26 ft | 7 kts | 276° |
| 2026-05-07 22:06 | 37.61972 | -122.38044 | 30 ft | 7 kts | 299° |
| 2026-05-07 22:06 | 37.62000 | -122.38109 | 25 ft | 9 kts | 298° |
| 2026-05-07 22:06 | 37.62034 | -122.38186 | 28 ft | 12 kts | 298° |
| 2026-05-07 22:06 | 37.62080 | -122.38297 | 27 ft | 18 kts | 297° |
| 2026-05-07 22:07 | 37.62123 | -122.38401 | 29 ft | 23 kts | 297° |
| 2026-05-07 22:07 | 37.62199 | -122.38583 | 28 ft | 24 kts | 298° |
| 2026-05-07 22:07 | 37.62280 | -122.38771 | 19 ft | 25 kts | 299° |
| 2026-05-07 22:07 | 37.62340 | -122.38944 | 19 ft | 18 kts | 272° |
| 2026-05-07 22:08 | 37.62303 | -122.39118 | 19 ft | 20 kts | 243° |
| 2026-05-07 22:08 | 37.62205 | -122.39228 | 19 ft | 19 kts | 213° |
| 2026-05-07 22:08 | 37.62059 | -122.39320 | 21 ft | 9 kts | 206° |
| 2026-05-07 22:08 | 37.62030 | -122.39332 | 24 ft | 3 kts | 181° |
| 2026-05-07 22:09 | 37.62019 | -122.39321 | 25 ft | 5 kts | 135° |
| 2026-05-07 22:09 | 37.61989 | -122.39293 | 26 ft | 4 kts | 156° |
| 2026-05-07 22:09 | 37.61972 | -122.39294 | 24 ft | 5 kts | 194° |
| 2026-05-07 22:09 | 37.61940 | -122.39313 | 24 ft | 4 kts | 209° |
| 2026-05-07 22:10 | 37.61927 | -122.39323 | 22 ft | 0 kts | 209° |